createdAt,value
2023-05-22T00:00:28.680Z,2.60
2023-05-22T00:02:57.748Z,2.50
2023-05-22T00:05:25.402Z,2.50
2023-05-22T00:07:52.500Z,2.20
2023-05-22T00:10:19.608Z,2.60
2023-05-22T00:12:46.677Z,2.30
2023-05-22T00:15:13.831Z,2.70
2023-05-22T00:17:41.248Z,2.40
2023-05-22T00:20:10.971Z,2.40
2023-05-22T00:22:38.180Z,2.70
2023-05-22T00:25:05.830Z,2.80
2023-05-22T00:27:33.684Z,2.60
2023-05-22T00:30:01.492Z,2.90
2023-05-22T00:32:28.926Z,2.30
2023-05-22T00:34:56.164Z,2.40
2023-05-22T00:37:23.324Z,2.30
2023-05-22T00:39:50.614Z,2.80
2023-05-22T00:42:18.631Z,2.70
2023-05-22T00:44:46.096Z,2.50
2023-05-22T00:48:45.026Z,2.90
2023-05-22T00:51:12.236Z,2.30
2023-05-22T00:53:39.406Z,2.50
2023-05-22T00:56:07.401Z,2.60
2023-05-22T00:58:34.451Z,2.60
2023-05-22T01:01:02.447Z,2.40
2023-05-22T01:03:30.259Z,2.40
2023-05-22T01:08:24.832Z,1.80
2023-05-22T01:13:39.046Z,2.40
2023-05-22T01:16:31.071Z,2.30
2023-05-22T01:19:18.215Z,2.40
2023-05-22T01:22:25.319Z,2.30
2023-05-22T01:24:52.450Z,2.50
2023-05-22T01:27:28.724Z,2.20
2023-05-22T01:30:34.457Z,2.10
2023-05-22T01:33:01.676Z,2.40
2023-05-22T01:35:29.132Z,2.30
2023-05-22T01:37:56.577Z,2.30
2023-05-22T01:40:24.000Z,2.40
2023-05-22T01:42:51.288Z,2.70
2023-05-22T01:45:18.404Z,2.80
2023-05-22T01:47:45.746Z,2.50
2023-05-22T01:50:14.659Z,2.20
2023-05-22T01:53:07.695Z,2.80
2023-05-22T01:55:43.227Z,2.30
2023-05-22T01:58:33.513Z,2.20
2023-05-22T02:01:01.632Z,2.00
2023-05-22T02:03:31.654Z,2.40
2023-05-22T02:06:00.559Z,2.70
2023-05-22T02:08:28.057Z,2.60
2023-05-22T02:10:55.440Z,2.10
2023-05-22T02:13:23.703Z,2.20
2023-05-22T02:15:51.364Z,2.40
2023-05-22T02:18:18.494Z,2.60
2023-05-22T02:20:48.632Z,2.40
2023-05-22T02:23:15.843Z,2.20
2023-05-22T02:25:43.000Z,3.10
2023-05-22T02:28:10.783Z,2.90
2023-05-22T02:30:37.929Z,2.30
2023-05-22T02:33:09.574Z,2.30
2023-05-22T02:35:36.783Z,2.10
2023-05-22T02:38:04.998Z,2.30
2023-05-22T02:40:32.137Z,1.90
2023-05-22T02:42:59.387Z,2.30
2023-05-22T02:45:26.817Z,2.20
2023-05-22T02:47:53.965Z,2.60
2023-05-22T02:50:22.091Z,3.20
2023-05-22T02:52:50.730Z,2.10
2023-05-22T02:55:17.855Z,2.60
2023-05-22T02:57:45.043Z,2.30
2023-05-22T03:00:12.575Z,2.20
2023-05-22T03:02:39.898Z,2.40
2023-05-22T03:05:08.409Z,2.50
2023-05-22T03:07:35.556Z,2.50
2023-05-22T03:10:02.713Z,2.20
2023-05-22T03:12:30.245Z,3.00
2023-05-22T03:14:57.680Z,2.40
2023-05-22T03:17:25.106Z,2.40
2023-05-22T03:19:52.299Z,2.40
2023-05-22T03:22:19.590Z,3.00
2023-05-22T03:24:46.788Z,2.60
2023-05-22T03:27:17.482Z,2.60
2023-05-22T03:29:46.585Z,2.60
2023-05-22T03:32:14.174Z,2.30
2023-05-22T03:34:42.205Z,2.40
2023-05-22T03:39:39.606Z,2.70
2023-05-22T03:42:39.258Z,2.40
2023-05-22T03:45:07.779Z,2.90
2023-05-22T03:47:34.880Z,2.50
2023-05-22T03:52:29.947Z,2.20
2023-05-22T03:54:57.256Z,2.70
2023-05-22T03:57:24.390Z,2.30
2023-05-22T03:59:51.582Z,2.90
2023-05-22T04:02:18.765Z,2.50
2023-05-22T04:04:48.954Z,2.60
2023-05-22T04:07:18.660Z,2.90
2023-05-22T04:09:45.935Z,2.70
2023-05-22T04:12:13.067Z,2.40
2023-05-22T04:14:40.264Z,2.50
2023-05-22T04:17:07.958Z,2.30
2023-05-22T04:19:35.386Z,2.40
2023-05-22T04:22:02.532Z,2.80
2023-05-22T04:24:29.657Z,2.50
2023-05-22T04:27:00.678Z,2.10
2023-05-22T04:29:28.829Z,2.20
2023-05-22T04:31:56.066Z,2.20
2023-05-22T04:34:24.249Z,2.10
2023-05-22T04:36:51.415Z,2.00
2023-05-22T04:39:18.608Z,2.40
2023-05-22T04:41:46.155Z,2.30
2023-05-22T04:44:14.451Z,2.40
2023-05-22T04:46:42.493Z,2.20
2023-05-22T04:49:10.668Z,2.10
2023-05-22T04:54:05.086Z,2.30
2023-05-22T04:56:36.795Z,1.70
2023-05-22T04:59:05.774Z,2.30
2023-05-22T05:01:35.356Z,2.20
2023-05-22T05:04:03.913Z,1.90
2023-05-22T05:08:59.136Z,2.00
2023-05-22T05:11:26.232Z,1.90
2023-05-22T05:13:53.353Z,1.50
2023-05-22T05:16:20.733Z,1.70
2023-05-22T05:18:47.868Z,2.00
2023-05-22T05:21:15.398Z,2.10
2023-05-22T05:23:43.490Z,2.00
2023-05-22T05:26:14.481Z,2.00
2023-05-22T05:28:41.956Z,1.80
2023-05-22T05:31:10.289Z,1.90
2023-05-22T05:33:52.310Z,1.90
2023-05-22T05:36:49.487Z,1.80
2023-05-22T05:41:44.164Z,1.80
2023-05-22T05:44:11.566Z,2.20
2023-05-22T05:46:38.772Z,2.40
2023-05-22T05:49:11.980Z,2.00
2023-05-22T05:51:41.214Z,1.80
2023-05-22T05:54:08.664Z,2.20
2023-05-22T05:56:36.878Z,2.40
2023-05-22T06:01:44.678Z,2.30
2023-05-22T06:04:16.917Z,2.10
2023-05-22T06:06:45.686Z,2.50
2023-05-22T06:09:15.690Z,2.50
2023-05-22T06:12:07.001Z,2.00
2023-05-22T06:14:34.200Z,2.10
2023-05-22T06:17:01.432Z,2.00
2023-05-22T06:19:28.791Z,2.20
2023-05-22T06:21:56.298Z,2.10
2023-05-22T06:24:23.833Z,2.50
2023-05-22T06:26:51.892Z,2.40
2023-05-22T06:29:19.234Z,2.10
2023-05-22T06:31:46.992Z,1.90
2023-05-22T06:34:16.015Z,2.10
2023-05-22T06:36:43.222Z,2.20
2023-05-22T06:39:10.653Z,2.50
2023-05-22T06:41:58.096Z,2.10
2023-05-22T06:44:25.916Z,2.30
2023-05-22T06:46:55.282Z,2.20
2023-05-22T06:49:24.695Z,2.40
2023-05-22T06:51:53.901Z,2.50
2023-05-22T06:54:21.763Z,2.30
2023-05-22T06:56:51.621Z,2.20
2023-05-22T06:59:18.959Z,1.80
2023-05-22T07:01:46.312Z,1.90
2023-05-22T07:04:17.586Z,2.40
2023-05-22T07:06:56.089Z,1.80
2023-05-22T07:09:24.140Z,1.70
2023-05-22T07:11:51.464Z,1.70
2023-05-22T07:14:18.543Z,2.20
2023-05-22T07:16:46.196Z,1.80
2023-05-22T07:19:15.634Z,1.90
2023-05-22T07:24:11.321Z,1.70
2023-05-22T07:26:41.322Z,2.10
2023-05-22T07:29:09.544Z,1.50
2023-05-22T07:31:39.323Z,1.90
2023-05-22T07:34:06.591Z,1.80
2023-05-22T07:36:35.118Z,1.70
2023-05-22T07:39:02.994Z,1.60
2023-05-22T07:41:32.677Z,1.80
2023-05-22T07:44:00.446Z,1.70
2023-05-22T07:46:31.666Z,1.60
2023-05-22T07:49:06.350Z,1.50
2023-05-22T07:51:33.831Z,1.90
2023-05-22T07:54:01.225Z,1.50
2023-05-22T07:56:28.349Z,1.30
2023-05-22T07:58:56.438Z,1.30
2023-05-22T08:01:23.722Z,1.70
2023-05-22T08:03:51.356Z,1.90
2023-05-22T08:08:45.923Z,1.30
2023-05-22T08:11:13.145Z,1.60
2023-05-22T08:13:40.349Z,1.50
2023-05-22T08:16:08.120Z,1.40
2023-05-22T08:18:35.323Z,1.30
2023-05-22T08:21:02.506Z,1.80
2023-05-22T08:23:30.210Z,1.30
2023-05-22T08:25:58.411Z,1.30
2023-05-22T08:28:25.938Z,1.10
2023-05-22T08:30:55.150Z,1.30
2023-05-22T08:33:22.509Z,1.60
2023-05-22T08:35:49.692Z,1.10
2023-05-22T08:38:17.783Z,1.40
2023-05-22T08:40:47.607Z,1.10
2023-05-22T08:43:15.799Z,1.30
2023-05-22T08:45:44.468Z,1.30
2023-05-22T08:48:13.366Z,1.50
2023-05-22T08:50:44.035Z,1.40
2023-05-22T08:53:12.694Z,1.30
2023-05-22T08:55:39.984Z,1.40
2023-05-22T08:58:07.343Z,1.30
2023-05-22T09:00:34.668Z,1.30
2023-05-22T09:03:02.045Z,1.40
2023-05-22T09:05:29.312Z,1.40
2023-05-22T09:08:02.658Z,1.30
2023-05-22T09:10:32.710Z,1.20
2023-05-22T09:13:09.175Z,1.00
2023-05-22T09:15:37.303Z,0.70
2023-05-22T09:18:05.203Z,1.30
2023-05-22T09:20:36.193Z,1.40
2023-05-22T09:23:20.501Z,1.30
2023-05-22T09:25:47.958Z,1.10
2023-05-22T09:28:15.336Z,1.20
2023-05-22T09:30:42.855Z,1.30
2023-05-22T09:33:10.505Z,1.30
2023-05-22T09:35:39.725Z,1.30
2023-05-22T09:38:07.173Z,1.50
2023-05-22T09:40:35.356Z,1.20
2023-05-22T09:43:04.492Z,1.00
2023-05-22T09:45:31.801Z,1.40
2023-05-22T09:47:58.893Z,1.40
2023-05-22T09:50:26.282Z,1.30
2023-05-22T09:52:53.592Z,1.10
2023-05-22T09:55:21.748Z,1.10
2023-05-22T09:57:50.356Z,1.10
2023-05-22T10:00:18.689Z,1.50
2023-05-22T10:02:47.858Z,1.30
2023-05-22T10:05:21.853Z,1.20
2023-05-22T10:07:50.689Z,1.40
2023-05-22T10:10:22.401Z,1.40
2023-05-22T10:12:54.195Z,1.00
2023-05-22T10:15:21.566Z,1.20
2023-05-22T10:17:49.323Z,1.40
2023-05-22T10:20:17.339Z,1.30
2023-05-22T10:22:44.791Z,1.20
2023-05-22T10:25:11.974Z,1.30
2023-05-22T10:27:39.552Z,1.20
2023-05-22T10:30:29.697Z,1.20
2023-05-22T10:33:25.223Z,1.20
2023-05-22T10:35:55.655Z,1.30
2023-05-22T10:38:42.010Z,1.00
2023-05-22T10:41:09.330Z,2.10
2023-05-22T10:43:45.468Z,1.00
2023-05-22T10:46:13.059Z,1.00
2023-05-22T10:48:41.432Z,1.80
2023-05-22T10:51:09.132Z,1.00
2023-05-22T10:56:14.065Z,1.20
2023-05-22T10:58:45.946Z,0.90
2023-05-22T11:01:20.244Z,1.10
2023-05-22T11:04:12.910Z,1.30
2023-05-22T11:06:42.399Z,1.10
2023-05-22T11:09:19.940Z,1.00
2023-05-22T11:11:47.323Z,1.10
2023-05-22T11:14:19.556Z,1.20
2023-05-22T11:16:46.842Z,1.30
2023-05-22T11:19:23.164Z,1.10
2023-05-22T11:21:50.819Z,1.30
2023-05-22T11:24:18.442Z,1.30
2023-05-22T11:26:45.926Z,1.20
2023-05-22T11:29:13.318Z,0.90
2023-05-22T11:31:40.784Z,1.20
2023-05-22T11:34:08.077Z,1.40
2023-05-22T11:36:35.338Z,1.10
2023-05-22T11:39:02.663Z,0.80
2023-05-22T11:41:36.208Z,1.10
2023-05-22T11:44:03.351Z,1.00
2023-05-22T11:46:30.641Z,1.20
2023-05-22T11:48:57.768Z,1.10
2023-05-22T11:51:25.031Z,1.40
2023-05-22T11:53:52.673Z,1.10
2023-05-22T11:56:23.289Z,1.30
2023-05-22T11:58:52.200Z,1.40
2023-05-22T12:01:19.918Z,1.30
2023-05-22T12:06:17.264Z,1.00
2023-05-22T12:08:45.622Z,1.30
2023-05-22T12:11:13.395Z,0.90
2023-05-22T12:13:41.684Z,1.00
2023-05-22T12:16:25.455Z,1.00
2023-05-22T12:18:54.381Z,1.10
2023-05-22T12:21:22.168Z,1.20
2023-05-22T12:26:17.984Z,1.20
2023-05-22T12:31:21.212Z,1.10
2023-05-22T12:33:48.987Z,1.20
2023-05-22T12:38:44.558Z,1.40
2023-05-22T12:41:12.440Z,1.20
2023-05-22T12:43:40.250Z,0.90
2023-05-22T12:46:07.856Z,1.20
2023-05-22T12:48:35.559Z,1.20
2023-05-22T12:53:31.303Z,1.00
2023-05-22T12:55:59.190Z,1.30
2023-05-22T12:58:26.879Z,0.90
2023-05-22T13:05:11.785Z,1.30
2023-05-22T13:07:39.601Z,1.50
2023-05-22T13:10:08.458Z,1.20
2023-05-22T13:12:36.257Z,1.30
2023-05-22T13:15:04.667Z,1.30
2023-05-22T13:17:32.467Z,1.20
2023-05-22T13:20:00.253Z,1.40
2023-05-22T13:24:56.034Z,1.10
2023-05-22T13:27:23.697Z,1.30
2023-05-22T13:32:20.168Z,1.30
2023-05-22T13:34:47.930Z,1.30
2023-05-22T13:37:15.887Z,1.40
2023-05-22T13:39:43.528Z,1.30
2023-05-22T13:42:11.272Z,1.20
2023-05-22T13:47:06.862Z,1.20
2023-05-22T13:52:02.311Z,1.20
2023-05-22T13:54:30.001Z,1.00
2023-05-22T13:59:26.181Z,1.20
2023-05-22T14:01:53.830Z,1.00
2023-05-22T14:04:21.602Z,1.00
2023-05-22T14:06:49.480Z,1.10
2023-05-22T14:09:17.744Z,1.00
2023-05-22T14:11:45.445Z,1.50
2023-05-22T14:16:40.718Z,1.10
2023-05-22T14:19:08.624Z,1.60
2023-05-22T14:21:36.970Z,1.30
2023-05-22T14:24:05.349Z,1.40
2023-05-22T14:26:33.119Z,1.20
2023-05-22T14:31:31.442Z,1.20
2023-05-22T14:33:59.313Z,1.10
2023-05-22T14:36:27.001Z,1.00
2023-05-22T14:41:23.096Z,1.20
2023-05-22T14:43:50.808Z,1.20
2023-05-22T14:48:46.196Z,1.20
2023-05-22T14:53:41.553Z,1.00
2023-05-22T14:56:09.316Z,1.10
2023-05-22T14:58:37.056Z,1.20
2023-05-22T15:03:32.201Z,1.00
2023-05-22T15:05:59.950Z,1.00
2023-05-22T15:08:27.616Z,1.20
2023-05-22T15:13:22.789Z,1.00
2023-05-22T15:20:45.643Z,0.90
2023-05-22T15:23:13.942Z,1.10
2023-05-22T15:25:43.048Z,1.40
2023-05-22T15:28:10.692Z,1.10
2023-05-22T15:33:07.293Z,1.00
2023-05-22T15:35:35.329Z,0.90
2023-05-22T15:38:03.419Z,1.10
2023-05-22T15:40:31.237Z,1.50
2023-05-22T15:45:30.791Z,1.20
2023-05-22T15:47:58.736Z,1.00
2023-05-22T15:50:26.593Z,1.30
2023-05-22T15:52:54.170Z,1.10
2023-05-22T15:55:21.962Z,1.30
2023-05-22T15:57:49.724Z,1.30
2023-05-22T16:00:18.966Z,1.30
2023-05-22T16:02:49.100Z,1.30
2023-05-22T16:05:16.810Z,1.20
2023-05-22T16:10:12.014Z,1.20
2023-05-22T16:12:39.859Z,1.30
2023-05-22T16:15:08.230Z,1.30
2023-05-22T16:17:35.846Z,1.40
2023-05-22T16:22:47.180Z,1.00
2023-05-22T16:25:17.085Z,1.10
2023-05-22T16:27:44.761Z,1.10
2023-05-22T16:30:15.028Z,1.30
2023-05-22T16:32:43.488Z,1.60
2023-05-22T16:35:11.748Z,1.20
2023-05-22T16:37:40.388Z,1.50
2023-05-22T16:40:11.589Z,1.20
2023-05-22T16:42:39.230Z,1.00
2023-05-22T16:45:09.264Z,1.20
2023-05-22T16:47:37.353Z,1.40
2023-05-22T16:50:05.911Z,1.40
2023-05-22T16:52:33.566Z,1.30
2023-05-22T16:55:01.763Z,1.50
2023-05-22T16:57:29.423Z,1.40
2023-05-22T16:59:57.883Z,1.30
2023-05-22T17:02:26.130Z,1.30
2023-05-22T17:04:54.610Z,1.30
2023-05-22T17:07:22.326Z,1.40
2023-05-22T17:09:50.031Z,1.40
2023-05-22T17:14:45.391Z,1.40
2023-05-22T17:17:13.057Z,1.50
2023-05-22T17:19:41.093Z,1.30
2023-05-22T17:22:09.144Z,1.30
2023-05-22T17:24:36.812Z,1.30
2023-05-22T17:27:06.805Z,1.90
2023-05-22T17:29:34.493Z,1.50
2023-05-22T17:32:02.584Z,1.50
2023-05-22T17:34:30.333Z,1.50
2023-05-22T17:36:59.425Z,1.50
2023-05-22T17:39:27.194Z,1.90
2023-05-22T17:41:54.816Z,2.00
2023-05-22T17:44:22.541Z,1.80
2023-05-22T17:49:18.059Z,1.60
2023-05-22T17:51:45.930Z,1.30
2023-05-22T17:56:42.642Z,1.60
2023-05-22T17:59:10.329Z,2.00
2023-05-22T18:01:38.121Z,1.30
2023-05-22T18:04:06.523Z,1.90
2023-05-22T18:06:34.393Z,1.60
2023-05-22T18:11:32.418Z,1.40
2023-05-22T18:14:00.051Z,1.90
2023-05-22T18:16:28.011Z,1.40
2023-05-22T18:18:56.010Z,2.10
2023-05-22T18:23:51.218Z,1.60
2023-05-22T18:26:18.837Z,1.60
2023-05-22T18:28:48.490Z,1.70
2023-05-22T18:31:16.895Z,2.10
2023-05-22T18:33:45.332Z,1.80
2023-05-22T18:36:13.162Z,1.90
2023-05-22T18:38:41.228Z,2.20
2023-05-22T18:41:08.962Z,1.70
2023-05-22T18:43:36.742Z,1.90
2023-05-22T18:46:04.469Z,2.00
2023-05-22T18:48:33.321Z,2.00
2023-05-22T18:51:01.105Z,1.60
2023-05-22T18:53:28.899Z,2.10
2023-05-22T18:55:56.587Z,2.40
2023-05-22T18:58:24.309Z,2.40
2023-05-22T19:00:54.512Z,2.10
2023-05-22T19:03:22.693Z,2.20
2023-05-22T19:05:50.542Z,2.20
2023-05-22T19:10:45.939Z,1.60
2023-05-22T19:13:13.592Z,2.00
2023-05-22T19:15:41.335Z,1.70
2023-05-22T19:18:09.247Z,1.60
2023-05-22T19:20:37.148Z,2.00
2023-05-22T19:23:06.726Z,1.80
2023-05-22T19:25:34.426Z,2.00
2023-05-22T19:28:02.071Z,2.10
2023-05-22T19:30:29.839Z,2.00
2023-05-22T19:32:57.749Z,2.10
2023-05-22T19:40:21.027Z,1.90
2023-05-22T19:42:48.691Z,1.90
2023-05-22T19:45:17.709Z,2.00
2023-05-22T19:47:45.350Z,2.30
2023-05-22T19:50:13.067Z,2.40
2023-05-22T19:52:40.916Z,2.50
2023-05-22T19:57:37.771Z,2.20
2023-05-22T20:02:35.606Z,2.20
2023-05-22T20:09:59.121Z,2.10
2023-05-22T20:12:26.958Z,2.20
2023-05-22T20:14:54.611Z,2.40
2023-05-22T20:17:22.920Z,2.20
2023-05-22T20:19:50.722Z,2.20
2023-05-22T20:22:18.481Z,2.50
2023-05-22T20:24:47.354Z,2.50
2023-05-22T20:27:15.018Z,2.80
2023-05-22T20:29:42.717Z,2.90
2023-05-22T20:32:10.976Z,2.60
2023-05-22T20:34:40.211Z,2.70
2023-05-22T20:37:09.255Z,2.80
2023-05-22T20:39:36.973Z,3.00
2023-05-22T20:42:04.948Z,2.90
2023-05-22T20:44:32.735Z,3.00
2023-05-22T20:47:01.430Z,2.80
2023-05-22T20:49:30.157Z,2.70
2023-05-22T20:52:00.204Z,2.90
2023-05-22T20:54:34.101Z,3.10
2023-05-22T20:57:02.292Z,3.30
2023-05-22T20:59:29.935Z,3.20
2023-05-22T21:01:58.027Z,3.20
2023-05-22T21:04:26.305Z,3.10
2023-05-22T21:06:54.003Z,3.60
2023-05-22T21:09:21.663Z,3.60
2023-05-22T21:11:49.278Z,4.30
2023-05-22T21:14:17.520Z,4.10
2023-05-22T21:16:45.576Z,3.50
2023-05-22T21:21:41.970Z,3.50
2023-05-22T21:24:10.046Z,3.60
2023-05-22T21:26:37.801Z,3.60
2023-05-22T21:31:35.375Z,4.00
2023-05-22T21:34:03.754Z,3.90
2023-05-22T21:39:00.600Z,3.70
2023-05-22T21:41:28.681Z,4.30
2023-05-22T21:43:57.363Z,3.90
2023-05-22T21:46:25.231Z,4.70
2023-05-22T21:48:54.013Z,4.50
2023-05-22T21:51:21.665Z,4.10
2023-05-22T21:53:49.279Z,4.60
2023-05-22T21:56:17.411Z,4.50
2023-05-22T21:58:45.394Z,4.50
2023-05-22T22:06:08.490Z,3.80
2023-05-22T22:08:36.341Z,4.10
2023-05-22T22:13:32.769Z,3.40
2023-05-22T22:16:00.649Z,4.80
2023-05-22T22:20:56.222Z,3.50
2023-05-22T22:23:24.265Z,4.20
2023-05-22T22:25:51.928Z,4.30
2023-05-22T22:28:19.520Z,4.80
2023-05-22T22:30:48.050Z,4.30
2023-05-22T22:33:15.696Z,4.50
2023-05-22T22:35:43.569Z,4.50
2023-05-22T22:40:39.195Z,4.20
2023-05-22T22:43:07.044Z,4.10
2023-05-22T22:45:34.780Z,3.80
2023-05-22T22:48:03.659Z,4.80
2023-05-22T22:50:32.413Z,4.50
2023-05-22T22:53:00.204Z,4.30
2023-05-22T22:55:28.051Z,4.30
2023-05-22T22:57:55.819Z,3.80
2023-05-22T23:00:23.945Z,3.80
2023-05-22T23:02:51.729Z,3.70
2023-05-22T23:07:48.456Z,3.60
2023-05-22T23:10:16.032Z,3.20
2023-05-22T23:12:43.977Z,3.40
2023-05-22T23:15:13.590Z,3.40
2023-05-22T23:17:41.580Z,3.70
2023-05-22T23:22:37.634Z,3.60
2023-05-22T23:27:33.701Z,3.60
2023-05-22T23:30:01.505Z,3.70
2023-05-22T23:32:29.364Z,3.90
2023-05-22T23:34:57.030Z,3.60
2023-05-22T23:37:25.047Z,3.90
2023-05-22T23:39:52.944Z,4.20
2023-05-22T23:42:20.556Z,4.40
2023-05-22T23:44:48.307Z,4.10
2023-05-22T23:47:17.021Z,4.40
2023-05-22T23:49:45.521Z,4.20
2023-05-22T23:52:13.339Z,4.10
2023-05-22T23:54:40.954Z,3.80
2023-05-22T23:59:36.330Z,3.80
